sensor_id;sensor_type;location;lat;lon;timestamp;P1;durP1;ratioP1;P2;durP2;ratioP2
66856;SDS011;53766;50.280;19.160;2023-03-23T00:00:20;12.00;;;6.70;;
66856;SDS011;53766;50.280;19.160;2023-03-23T00:03:07;13.02;;;6.70;;
66856;SDS011;53766;50.280;19.160;2023-03-23T00:05:34;13.05;;;7.18;;
66856;SDS011;53766;50.280;19.160;2023-03-23T00:08:03;12.02;;;6.78;;
66856;SDS011;53766;50.280;19.160;2023-03-23T00:10:29;12.35;;;6.80;;
66856;SDS011;53766;50.280;19.160;2023-03-23T00:12:59;13.75;;;7.07;;
66856;SDS011;53766;50.280;19.160;2023-03-23T00:15:28;12.25;;;7.22;;
66856;SDS011;53766;50.280;19.160;2023-03-23T00:17:59;12.57;;;7.20;;
66856;SDS011;53766;50.280;19.160;2023-03-23T00:20:28;11.68;;;6.97;;
66856;SDS011;53766;50.280;19.160;2023-03-23T00:23:06;14.75;;;7.57;;
66856;SDS011;53766;50.280;19.160;2023-03-23T00:25:33;12.85;;;7.60;;
66856;SDS011;53766;50.280;19.160;2023-03-23T00:27:59;13.80;;;7.65;;
66856;SDS011;53766;50.280;19.160;2023-03-23T00:30:26;14.70;;;8.02;;
66856;SDS011;53766;50.280;19.160;2023-03-23T00:32:52;12.35;;;7.90;;
66856;SDS011;53766;50.280;19.160;2023-03-23T00:35:18;12.20;;;7.20;;
66856;SDS011;53766;50.280;19.160;2023-03-23T00:37:45;12.35;;;7.35;;
66856;SDS011;53766;50.280;19.160;2023-03-23T00:40:12;13.23;;;7.90;;
66856;SDS011;53766;50.280;19.160;2023-03-23T00:42:38;15.27;;;7.60;;
66856;SDS011;53766;50.280;19.160;2023-03-23T00:45:05;11.95;;;6.95;;
66856;SDS011;53766;50.280;19.160;2023-03-23T00:47:37;11.93;;;7.47;;
66856;SDS011;53766;50.280;19.160;2023-03-23T00:50:03;11.80;;;7.57;;
66856;SDS011;53766;50.280;19.160;2023-03-23T00:52:31;14.60;;;7.40;;
66856;SDS011;53766;50.280;19.160;2023-03-23T00:54:57;13.00;;;7.47;;
66856;SDS011;53766;50.280;19.160;2023-03-23T00:57:23;12.00;;;7.38;;
66856;SDS011;53766;50.280;19.160;2023-03-23T00:59:50;12.13;;;7.65;;
66856;SDS011;53766;50.280;19.160;2023-03-23T01:02:17;15.00;;;7.38;;
66856;SDS011;53766;50.280;19.160;2023-03-23T01:04:44;12.77;;;7.38;;
66856;SDS011;53766;50.280;19.160;2023-03-23T01:07:11;14.68;;;7.47;;
66856;SDS011;53766;50.280;19.160;2023-03-23T01:09:40;15.27;;;8.38;;
66856;SDS011;53766;50.280;19.160;2023-03-23T01:12:10;14.85;;;7.90;;
66856;SDS011;53766;50.280;19.160;2023-03-23T01:14:37;14.27;;;8.10;;
66856;SDS011;53766;50.280;19.160;2023-03-23T01:17:03;13.40;;;7.43;;
66856;SDS011;53766;50.280;19.160;2023-03-23T01:19:30;14.88;;;8.60;;
66856;SDS011;53766;50.280;19.160;2023-03-23T01:21:57;13.65;;;7.93;;
66856;SDS011;53766;50.280;19.160;2023-03-23T01:24:23;15.90;;;7.90;;
66856;SDS011;53766;50.280;19.160;2023-03-23T01:26:50;12.73;;;7.53;;
66856;SDS011;53766;50.280;19.160;2023-03-23T01:29:16;15.23;;;8.55;;
66856;SDS011;53766;50.280;19.160;2023-03-23T01:31:43;12.98;;;7.82;;
66856;SDS011;53766;50.280;19.160;2023-03-23T01:34:09;13.63;;;7.97;;
66856;SDS011;53766;50.280;19.160;2023-03-23T01:36:36;13.75;;;7.70;;
66856;SDS011;53766;50.280;19.160;2023-03-23T01:39:03;14.50;;;8.00;;
66856;SDS011;53766;50.280;19.160;2023-03-23T01:41:32;13.50;;;7.78;;
66856;SDS011;53766;50.280;19.160;2023-03-23T01:44:03;13.73;;;8.30;;
66856;SDS011;53766;50.280;19.160;2023-03-23T01:46:53;12.23;;;7.35;;
66856;SDS011;53766;50.280;19.160;2023-03-23T01:49:29;13.70;;;7.78;;
66856;SDS011;53766;50.280;19.160;2023-03-23T01:52:03;13.40;;;8.00;;
66856;SDS011;53766;50.280;19.160;2023-03-23T01:54:32;13.98;;;8.10;;
66856;SDS011;53766;50.280;19.160;2023-03-23T01:57:09;13.10;;;7.90;;
66856;SDS011;53766;50.280;19.160;2023-03-23T01:59:37;13.32;;;7.20;;
66856;SDS011;53766;50.280;19.160;2023-03-23T02:02:04;13.20;;;7.80;;
66856;SDS011;53766;50.280;19.160;2023-03-23T02:04:32;13.48;;;7.78;;
66856;SDS011;53766;50.280;19.160;2023-03-23T02:07:00;14.80;;;8.15;;
66856;SDS011;53766;50.280;19.160;2023-03-23T02:09:27;12.45;;;7.78;;
66856;SDS011;53766;50.280;19.160;2023-03-23T02:11:54;13.18;;;8.18;;
66856;SDS011;53766;50.280;19.160;2023-03-23T02:14:21;14.18;;;7.80;;
66856;SDS011;53766;50.280;19.160;2023-03-23T02:34:18;15.60;;;8.68;;
66856;SDS011;53766;50.280;19.160;2023-03-23T02:36:59;12.50;;;7.97;;
66856;SDS011;53766;50.280;19.160;2023-03-23T02:39:30;13.70;;;8.68;;
66856;SDS011;53766;50.280;19.160;2023-03-23T02:42:09;14.00;;;7.97;;
66856;SDS011;53766;50.280;19.160;2023-03-23T02:44:39;13.40;;;8.23;;
66856;SDS011;53766;50.280;19.160;2023-03-23T02:47:11;14.98;;;8.80;;
66856;SDS011;53766;50.280;19.160;2023-03-23T02:49:42;14.75;;;8.68;;
66856;SDS011;53766;50.280;19.160;2023-03-23T02:52:12;12.40;;;8.15;;
66856;SDS011;53766;50.280;19.160;2023-03-23T02:54:44;13.75;;;8.48;;
66856;SDS011;53766;50.280;19.160;2023-03-23T02:57:13;14.48;;;8.52;;
66856;SDS011;53766;50.280;19.160;2023-03-23T02:59:40;13.75;;;8.60;;
66856;SDS011;53766;50.280;19.160;2023-03-23T03:02:11;15.32;;;8.63;;
66856;SDS011;53766;50.280;19.160;2023-03-23T03:04:45;14.77;;;8.95;;
66856;SDS011;53766;50.280;19.160;2023-03-23T03:10:14;14.35;;;8.35;;
66856;SDS011;53766;50.280;19.160;2023-03-23T03:18:21;13.68;;;8.23;;
66856;SDS011;53766;50.280;19.160;2023-03-23T03:20:52;13.77;;;8.18;;
66856;SDS011;53766;50.280;19.160;2023-03-23T03:23:23;12.20;;;8.35;;
66856;SDS011;53766;50.280;19.160;2023-03-23T03:25:51;14.55;;;8.48;;
66856;SDS011;53766;50.280;19.160;2023-03-23T03:28:23;13.45;;;8.35;;
66856;SDS011;53766;50.280;19.160;2023-03-23T03:30:54;14.30;;;8.38;;
66856;SDS011;53766;50.280;19.160;2023-03-23T03:33:23;15.95;;;8.32;;
66856;SDS011;53766;50.280;19.160;2023-03-23T03:35:53;14.80;;;8.77;;
66856;SDS011;53766;50.280;19.160;2023-03-23T03:38:23;14.85;;;8.02;;
66856;SDS011;53766;50.280;19.160;2023-03-23T03:40:50;13.73;;;8.43;;
66856;SDS011;53766;50.280;19.160;2023-03-23T03:43:16;15.80;;;8.57;;
66856;SDS011;53766;50.280;19.160;2023-03-23T03:45:44;13.82;;;8.63;;
66856;SDS011;53766;50.280;19.160;2023-03-23T03:48:10;13.43;;;8.23;;
66856;SDS011;53766;50.280;19.160;2023-03-23T03:50:37;13.10;;;8.45;;
66856;SDS011;53766;50.280;19.160;2023-03-23T03:53:04;13.43;;;8.43;;
66856;SDS011;53766;50.280;19.160;2023-03-23T03:55:32;13.65;;;8.02;;
66856;SDS011;53766;50.280;19.160;2023-03-23T03:58:02;12.35;;;8.13;;
66856;SDS011;53766;50.280;19.160;2023-03-23T04:00:30;12.90;;;8.48;;
66856;SDS011;53766;50.280;19.160;2023-03-23T04:02:56;13.18;;;8.20;;
66856;SDS011;53766;50.280;19.160;2023-03-23T04:05:26;15.30;;;8.75;;
66856;SDS011;53766;50.280;19.160;2023-03-23T04:07:54;13.57;;;7.93;;
66856;SDS011;53766;50.280;19.160;2023-03-23T04:10:27;13.70;;;8.48;;
66856;SDS011;53766;50.280;19.160;2023-03-23T04:12:55;13.70;;;8.27;;
66856;SDS011;53766;50.280;19.160;2023-03-23T04:15:21;15.30;;;8.43;;
66856;SDS011;53766;50.280;19.160;2023-03-23T04:17:48;14.25;;;8.48;;
66856;SDS011;53766;50.280;19.160;2023-03-23T04:20:16;15.38;;;8.50;;
66856;SDS011;53766;50.280;19.160;2023-03-23T04:22:44;15.45;;;7.75;;
66856;SDS011;53766;50.280;19.160;2023-03-23T04:25:16;14.55;;;8.45;;
66856;SDS011;53766;50.280;19.160;2023-03-23T04:27:46;12.27;;;7.85;;
66856;SDS011;53766;50.280;19.160;2023-03-23T04:30:19;16.55;;;8.63;;
66856;SDS011;53766;50.280;19.160;2023-03-23T04:32:48;16.92;;;9.70;;
66856;SDS011;53766;50.280;19.160;2023-03-23T04:35:22;14.38;;;8.48;;
66856;SDS011;53766;50.280;19.160;2023-03-23T04:37:52;15.52;;;8.98;;
66856;SDS011;53766;50.280;19.160;2023-03-23T04:40:19;13.38;;;8.40;;
66856;SDS011;53766;50.280;19.160;2023-03-23T04:42:46;14.40;;;8.02;;
66856;SDS011;53766;50.280;19.160;2023-03-23T04:45:19;13.90;;;8.73;;
66856;SDS011;53766;50.280;19.160;2023-03-23T04:47:48;14.32;;;8.68;;
66856;SDS011;53766;50.280;19.160;2023-03-23T04:50:27;14.55;;;8.32;;
66856;SDS011;53766;50.280;19.160;2023-03-23T04:53:00;14.98;;;8.15;;
66856;SDS011;53766;50.280;19.160;2023-03-23T04:55:32;13.40;;;8.60;;
66856;SDS011;53766;50.280;19.160;2023-03-23T04:58:02;14.13;;;8.00;;
66856;SDS011;53766;50.280;19.160;2023-03-23T05:00:29;13.77;;;8.02;;
66856;SDS011;53766;50.280;19.160;2023-03-23T05:02:56;13.00;;;7.88;;
66856;SDS011;53766;50.280;19.160;2023-03-23T05:05:22;12.88;;;7.95;;
66856;SDS011;53766;50.280;19.160;2023-03-23T05:07:49;12.32;;;7.40;;
66856;SDS011;53766;50.280;19.160;2023-03-23T05:10:15;14.70;;;8.15;;
66856;SDS011;53766;50.280;19.160;2023-03-23T05:12:42;13.38;;;8.00;;
66856;SDS011;53766;50.280;19.160;2023-03-23T05:15:10;13.98;;;7.95;;
66856;SDS011;53766;50.280;19.160;2023-03-23T05:17:38;14.20;;;8.05;;
66856;SDS011;53766;50.280;19.160;2023-03-23T05:20:06;13.70;;;7.63;;
66856;SDS011;53766;50.280;19.160;2023-03-23T05:22:38;11.50;;;7.68;;
66856;SDS011;53766;50.280;19.160;2023-03-23T05:25:05;12.65;;;7.80;;
66856;SDS011;53766;50.280;19.160;2023-03-23T05:27:35;13.30;;;7.78;;
66856;SDS011;53766;50.280;19.160;2023-03-23T05:30:03;15.88;;;8.15;;
66856;SDS011;53766;50.280;19.160;2023-03-23T05:32:32;14.68;;;8.10;;
66856;SDS011;53766;50.280;19.160;2023-03-23T05:34:59;12.65;;;7.65;;
66856;SDS011;53766;50.280;19.160;2023-03-23T05:37:27;14.32;;;7.45;;
66856;SDS011;53766;50.280;19.160;2023-03-23T05:40:00;15.57;;;7.63;;
66856;SDS011;53766;50.280;19.160;2023-03-23T05:42:31;13.13;;;7.70;;
66856;SDS011;53766;50.280;19.160;2023-03-23T05:45:00;12.52;;;7.95;;
66856;SDS011;53766;50.280;19.160;2023-03-23T05:47:30;13.05;;;7.13;;
66856;SDS011;53766;50.280;19.160;2023-03-23T05:49:57;12.25;;;7.25;;
66856;SDS011;53766;50.280;19.160;2023-03-23T05:52:24;12.15;;;7.35;;
66856;SDS011;53766;50.280;19.160;2023-03-23T05:54:52;12.63;;;7.60;;
66856;SDS011;53766;50.280;19.160;2023-03-23T05:57:18;13.55;;;7.63;;
66856;SDS011;53766;50.280;19.160;2023-03-23T05:59:47;14.63;;;7.57;;
66856;SDS011;53766;50.280;19.160;2023-03-23T06:02:15;11.13;;;7.13;;
66856;SDS011;53766;50.280;19.160;2023-03-23T06:04:42;13.27;;;7.43;;
66856;SDS011;53766;50.280;19.160;2023-03-23T06:07:09;13.68;;;7.85;;
66856;SDS011;53766;50.280;19.160;2023-03-23T06:09:40;13.32;;;7.45;;
66856;SDS011;53766;50.280;19.160;2023-03-23T06:12:07;13.98;;;7.80;;
66856;SDS011;53766;50.280;19.160;2023-03-23T06:14:35;11.32;;;6.80;;
66856;SDS011;53766;50.280;19.160;2023-03-23T06:17:02;12.25;;;7.28;;
66856;SDS011;53766;50.280;19.160;2023-03-23T06:19:29;12.25;;;7.30;;
66856;SDS011;53766;50.280;19.160;2023-03-23T06:21:55;12.38;;;7.28;;
66856;SDS011;53766;50.280;19.160;2023-03-23T06:24:21;10.82;;;7.05;;
66856;SDS011;53766;50.280;19.160;2023-03-23T06:26:48;10.95;;;6.95;;
66856;SDS011;53766;50.280;19.160;2023-03-23T06:29:16;20.58;;;6.95;;
66856;SDS011;53766;50.280;19.160;2023-03-23T06:31:44;10.93;;;6.63;;
66856;SDS011;53766;50.280;19.160;2023-03-23T06:34:13;10.50;;;7.18;;
66856;SDS011;53766;50.280;19.160;2023-03-23T06:36:40;12.05;;;7.20;;
66856;SDS011;53766;50.280;19.160;2023-03-23T06:39:09;13.38;;;6.90;;
66856;SDS011;53766;50.280;19.160;2023-03-23T06:41:36;10.75;;;6.97;;
66856;SDS011;53766;50.280;19.160;2023-03-23T06:44:02;10.63;;;6.90;;
66856;SDS011;53766;50.280;19.160;2023-03-23T06:46:29;11.52;;;6.97;;
66856;SDS011;53766;50.280;19.160;2023-03-23T06:48:56;12.10;;;6.70;;
66856;SDS011;53766;50.280;19.160;2023-03-23T06:51:23;16.67;;;7.45;;
66856;SDS011;53766;50.280;19.160;2023-03-23T06:53:49;15.32;;;7.28;;
66856;SDS011;53766;50.280;19.160;2023-03-23T06:56:16;11.45;;;6.72;;
66856;SDS011;53766;50.280;19.160;2023-03-23T06:58:42;10.57;;;6.82;;
66856;SDS011;53766;50.280;19.160;2023-03-23T07:01:11;12.73;;;7.00;;
66856;SDS011;53766;50.280;19.160;2023-03-23T07:03:38;10.48;;;7.00;;
66856;SDS011;53766;50.280;19.160;2023-03-23T07:06:07;11.20;;;6.82;;
66856;SDS011;53766;50.280;19.160;2023-03-23T07:08:34;14.45;;;7.20;;
66856;SDS011;53766;50.280;19.160;2023-03-23T07:11:01;11.55;;;6.90;;
66856;SDS011;53766;50.280;19.160;2023-03-23T07:13:27;11.82;;;7.25;;
66856;SDS011;53766;50.280;19.160;2023-03-23T07:15:54;12.65;;;7.10;;
66856;SDS011;53766;50.280;19.160;2023-03-23T07:18:21;10.85;;;6.50;;
66856;SDS011;53766;50.280;19.160;2023-03-23T07:20:48;12.48;;;6.70;;
66856;SDS011;53766;50.280;19.160;2023-03-23T07:23:16;15.73;;;7.20;;
66856;SDS011;53766;50.280;19.160;2023-03-23T07:25:43;14.38;;;7.03;;
66856;SDS011;53766;50.280;19.160;2023-03-23T07:28:11;14.35;;;7.05;;
66856;SDS011;53766;50.280;19.160;2023-03-23T07:30:38;14.68;;;7.38;;
66856;SDS011;53766;50.280;19.160;2023-03-23T07:33:05;15.85;;;6.97;;
66856;SDS011;53766;50.280;19.160;2023-03-23T07:35:32;12.50;;;6.82;;
66856;SDS011;53766;50.280;19.160;2023-03-23T07:37:59;14.70;;;7.10;;
66856;SDS011;53766;50.280;19.160;2023-03-23T07:40:26;14.10;;;6.93;;
66856;SDS011;53766;50.280;19.160;2023-03-23T07:42:54;14.57;;;7.07;;
66856;SDS011;53766;50.280;19.160;2023-03-23T07:45:21;13.25;;;6.38;;
66856;SDS011;53766;50.280;19.160;2023-03-23T07:47:50;13.27;;;7.03;;
66856;SDS011;53766;50.280;19.160;2023-03-23T07:50:16;13.77;;;6.70;;
66856;SDS011;53766;50.280;19.160;2023-03-23T07:52:43;15.70;;;6.88;;
66856;SDS011;53766;50.280;19.160;2023-03-23T07:55:11;13.75;;;6.68;;
66856;SDS011;53766;50.280;19.160;2023-03-23T07:57:44;12.85;;;6.35;;
66856;SDS011;53766;50.280;19.160;2023-03-23T08:00:11;13.48;;;6.60;;
66856;SDS011;53766;50.280;19.160;2023-03-23T08:02:45;13.50;;;6.55;;
66856;SDS011;53766;50.280;19.160;2023-03-23T08:05:31;14.50;;;6.80;;
66856;SDS011;53766;50.280;19.160;2023-03-23T08:07:59;11.00;;;6.50;;
66856;SDS011;53766;50.280;19.160;2023-03-23T08:10:25;15.25;;;7.18;;
66856;SDS011;53766;50.280;19.160;2023-03-23T08:12:53;12.30;;;6.55;;
66856;SDS011;53766;50.280;19.160;2023-03-23T08:15:21;16.08;;;6.45;;
66856;SDS011;53766;50.280;19.160;2023-03-23T08:17:49;11.18;;;6.30;;
66856;SDS011;53766;50.280;19.160;2023-03-23T08:20:17;10.93;;;6.32;;
66856;SDS011;53766;50.280;19.160;2023-03-23T08:22:45;10.80;;;6.22;;
66856;SDS011;53766;50.280;19.160;2023-03-23T08:25:19;11.90;;;6.32;;
66856;SDS011;53766;50.280;19.160;2023-03-23T08:27:46;14.68;;;6.35;;
66856;SDS011;53766;50.280;19.160;2023-03-23T08:30:13;14.50;;;6.95;;
66856;SDS011;53766;50.280;19.160;2023-03-23T08:32:45;11.50;;;6.55;;
66856;SDS011;53766;50.280;19.160;2023-03-23T08:35:13;11.07;;;6.43;;
66856;SDS011;53766;50.280;19.160;2023-03-23T08:37:41;11.68;;;6.03;;
66856;SDS011;53766;50.280;19.160;2023-03-23T08:40:09;12.80;;;6.30;;
66856;SDS011;53766;50.280;19.160;2023-03-23T08:42:38;13.00;;;6.57;;
66856;SDS011;53766;50.280;19.160;2023-03-23T08:45:06;11.77;;;6.05;;
66856;SDS011;53766;50.280;19.160;2023-03-23T08:47:34;11.48;;;6.20;;
66856;SDS011;53766;50.280;19.160;2023-03-23T08:50:02;12.82;;;6.75;;
66856;SDS011;53766;50.280;19.160;2023-03-23T08:52:31;11.80;;;6.45;;
66856;SDS011;53766;50.280;19.160;2023-03-23T08:54:57;11.38;;;5.93;;
66856;SDS011;53766;50.280;19.160;2023-03-23T08:57:25;11.07;;;6.40;;
66856;SDS011;53766;50.280;19.160;2023-03-23T08:59:51;11.68;;;6.20;;
66856;SDS011;53766;50.280;19.160;2023-03-23T09:02:20;12.60;;;6.30;;
66856;SDS011;53766;50.280;19.160;2023-03-23T09:04:46;11.05;;;6.15;;
66856;SDS011;53766;50.280;19.160;2023-03-23T09:07:13;9.70;;;5.45;;
66856;SDS011;53766;50.280;19.160;2023-03-23T09:09:40;10.65;;;5.85;;
66856;SDS011;53766;50.280;19.160;2023-03-23T09:12:08;9.13;;;5.97;;
66856;SDS011;53766;50.280;19.160;2023-03-23T09:14:35;8.50;;;5.95;;
66856;SDS011;53766;50.280;19.160;2023-03-23T09:17:03;12.10;;;5.93;;
66856;SDS011;53766;50.280;19.160;2023-03-23T09:19:31;9.85;;;5.68;;
66856;SDS011;53766;50.280;19.160;2023-03-23T09:21:59;10.52;;;5.80;;
66856;SDS011;53766;50.280;19.160;2023-03-23T09:24:27;9.15;;;5.75;;
66856;SDS011;53766;50.280;19.160;2023-03-23T09:26:54;9.35;;;5.45;;
66856;SDS011;53766;50.280;19.160;2023-03-23T09:29:20;9.20;;;5.28;;
66856;SDS011;53766;50.280;19.160;2023-03-23T09:31:47;10.40;;;6.03;;
66856;SDS011;53766;50.280;19.160;2023-03-23T09:34:13;9.27;;;5.80;;
66856;SDS011;53766;50.280;19.160;2023-03-23T09:36:41;9.90;;;6.00;;
66856;SDS011;53766;50.280;19.160;2023-03-23T09:39:08;9.63;;;5.22;;
66856;SDS011;53766;50.280;19.160;2023-03-23T09:50:21;8.88;;;5.13;;
66856;SDS011;53766;50.280;19.160;2023-03-23T09:52:57;9.82;;;5.55;;
66856;SDS011;53766;50.280;19.160;2023-03-23T09:55:45;7.70;;;5.35;;
66856;SDS011;53766;50.280;19.160;2023-03-23T09:58:15;8.20;;;4.80;;
66856;SDS011;53766;50.280;19.160;2023-03-23T10:00:59;8.65;;;5.20;;
66856;SDS011;53766;50.280;19.160;2023-03-23T10:03:31;10.10;;;5.53;;
66856;SDS011;53766;50.280;19.160;2023-03-23T10:06:03;10.45;;;5.18;;
66856;SDS011;53766;50.280;19.160;2023-03-23T10:08:31;8.98;;;5.32;;
66856;SDS011;53766;50.280;19.160;2023-03-23T10:11:14;11.43;;;5.50;;
66856;SDS011;53766;50.280;19.160;2023-03-23T10:16:32;9.68;;;5.15;;
66856;SDS011;53766;50.280;19.160;2023-03-23T10:21:46;8.95;;;5.18;;
66856;SDS011;53766;50.280;19.160;2023-03-23T10:24:19;7.20;;;4.70;;
66856;SDS011;53766;50.280;19.160;2023-03-23T10:27:03;10.25;;;5.00;;
66856;SDS011;53766;50.280;19.160;2023-03-23T10:29:53;7.85;;;4.63;;
66856;SDS011;53766;50.280;19.160;2023-03-23T10:32:41;9.98;;;5.40;;
66856;SDS011;53766;50.280;19.160;2023-03-23T10:35:18;7.72;;;4.95;;
66856;SDS011;53766;50.280;19.160;2023-03-23T10:37:59;8.23;;;4.90;;
66856;SDS011;53766;50.280;19.160;2023-03-23T10:40:30;8.75;;;4.97;;
66856;SDS011;53766;50.280;19.160;2023-03-23T10:42:59;8.20;;;4.88;;
66856;SDS011;53766;50.280;19.160;2023-03-23T10:45:27;8.27;;;4.75;;
66856;SDS011;53766;50.280;19.160;2023-03-23T10:48:01;8.00;;;4.70;;
66856;SDS011;53766;50.280;19.160;2023-03-23T10:50:36;9.32;;;4.80;;
66856;SDS011;53766;50.280;19.160;2023-03-23T10:53:14;9.27;;;5.07;;
66856;SDS011;53766;50.280;19.160;2023-03-23T10:55:44;9.93;;;4.85;;
66856;SDS011;53766;50.280;19.160;2023-03-23T10:58:12;9.05;;;4.35;;
66856;SDS011;53766;50.280;19.160;2023-03-23T11:00:56;7.43;;;4.32;;
66856;SDS011;53766;50.280;19.160;2023-03-23T11:03:42;7.57;;;4.43;;
66856;SDS011;53766;50.280;19.160;2023-03-23T11:06:11;9.00;;;5.10;;
66856;SDS011;53766;50.280;19.160;2023-03-23T11:08:49;9.35;;;4.40;;
66856;SDS011;53766;50.280;19.160;2023-03-23T11:13:55;7.78;;;4.55;;
66856;SDS011;53766;50.280;19.160;2023-03-23T11:16:26;7.43;;;4.55;;
66856;SDS011;53766;50.280;19.160;2023-03-23T11:18:56;6.90;;;4.43;;
66856;SDS011;53766;50.280;19.160;2023-03-23T11:21:25;9.73;;;4.03;;
66856;SDS011;53766;50.280;19.160;2023-03-23T11:23:54;7.20;;;4.35;;
66856;SDS011;53766;50.280;19.160;2023-03-23T11:26:26;6.35;;;4.10;;
66856;SDS011;53766;50.280;19.160;2023-03-23T11:28:59;7.63;;;4.32;;
66856;SDS011;53766;50.280;19.160;2023-03-23T11:31:45;6.18;;;4.15;;
66856;SDS011;53766;50.280;19.160;2023-03-23T11:36:51;6.65;;;4.28;;
66856;SDS011;53766;50.280;19.160;2023-03-23T11:39:23;8.13;;;3.92;;
66856;SDS011;53766;50.280;19.160;2023-03-23T11:41:54;4.82;;;3.63;;
66856;SDS011;53766;50.280;19.160;2023-03-23T11:44:24;5.80;;;3.80;;
66856;SDS011;53766;50.280;19.160;2023-03-23T11:52:21;7.35;;;4.03;;
66856;SDS011;53766;50.280;19.160;2023-03-23T11:54:54;6.22;;;3.80;;
66856;SDS011;53766;50.280;19.160;2023-03-23T11:57:28;9.10;;;3.78;;
66856;SDS011;53766;50.280;19.160;2023-03-23T11:59:56;7.07;;;3.90;;
66856;SDS011;53766;50.280;19.160;2023-03-23T12:02:35;6.88;;;4.18;;
66856;SDS011;53766;50.280;19.160;2023-03-23T12:19:30;6.25;;;3.90;;
66856;SDS011;53766;50.280;19.160;2023-03-23T12:38:09;6.75;;;3.50;;
66856;SDS011;53766;50.280;19.160;2023-03-23T12:40:44;5.45;;;3.42;;
66856;SDS011;53766;50.280;19.160;2023-03-23T12:48:32;5.28;;;3.30;;
66856;SDS011;53766;50.280;19.160;2023-03-23T12:53:46;6.10;;;3.60;;
66856;SDS011;53766;50.280;19.160;2023-03-23T12:58:56;4.07;;;3.08;;
66856;SDS011;53766;50.280;19.160;2023-03-23T13:01:31;6.00;;;3.45;;
66856;SDS011;53766;50.280;19.160;2023-03-23T13:04:11;5.78;;;3.25;;
66856;SDS011;53766;50.280;19.160;2023-03-23T13:06:43;5.43;;;3.08;;
66856;SDS011;53766;50.280;19.160;2023-03-23T13:09:14;4.93;;;3.28;;
66856;SDS011;53766;50.280;19.160;2023-03-23T13:11:54;5.35;;;3.15;;
66856;SDS011;53766;50.280;19.160;2023-03-23T13:14:29;5.88;;;3.10;;
66856;SDS011;53766;50.280;19.160;2023-03-23T13:22:21;5.63;;;3.30;;
66856;SDS011;53766;50.280;19.160;2023-03-23T13:24:52;4.35;;;2.88;;
66856;SDS011;53766;50.280;19.160;2023-03-23T13:27:26;4.90;;;3.20;;
66856;SDS011;53766;50.280;19.160;2023-03-23T13:29:54;7.07;;;3.15;;
66856;SDS011;53766;50.280;19.160;2023-03-23T13:32:22;4.35;;;3.13;;
66856;SDS011;53766;50.280;19.160;2023-03-23T13:35:02;4.78;;;3.00;;
66856;SDS011;53766;50.280;19.160;2023-03-23T13:37:32;4.85;;;3.25;;
66856;SDS011;53766;50.280;19.160;2023-03-23T13:42:47;4.88;;;3.08;;
66856;SDS011;53766;50.280;19.160;2023-03-23T13:45:22;4.82;;;2.80;;
66856;SDS011;53766;50.280;19.160;2023-03-23T13:47:49;4.78;;;3.10;;
66856;SDS011;53766;50.280;19.160;2023-03-23T13:50:28;4.90;;;2.90;;
66856;SDS011;53766;50.280;19.160;2023-03-23T13:52:58;3.95;;;2.80;;
66856;SDS011;53766;50.280;19.160;2023-03-23T13:55:40;4.38;;;2.92;;
66856;SDS011;53766;50.280;19.160;2023-03-23T13:58:26;5.70;;;3.10;;
66856;SDS011;53766;50.280;19.160;2023-03-23T14:03:39;5.55;;;2.65;;
66856;SDS011;53766;50.280;19.160;2023-03-23T14:06:14;4.95;;;2.83;;
66856;SDS011;53766;50.280;19.160;2023-03-23T14:08:43;4.97;;;3.05;;
66856;SDS011;53766;50.280;19.160;2023-03-23T14:11:13;4.35;;;2.80;;
66856;SDS011;53766;50.280;19.160;2023-03-23T14:13:47;5.32;;;2.80;;
66856;SDS011;53766;50.280;19.160;2023-03-23T14:16:25;5.20;;;2.88;;
66856;SDS011;53766;50.280;19.160;2023-03-23T14:18:59;5.22;;;3.08;;
66856;SDS011;53766;50.280;19.160;2023-03-23T14:23:54;4.13;;;2.95;;
66856;SDS011;53766;50.280;19.160;2023-03-23T14:26:22;4.10;;;2.45;;
66856;SDS011;53766;50.280;19.160;2023-03-23T14:28:52;4.50;;;3.08;;
66856;SDS011;53766;50.280;19.160;2023-03-23T14:33:53;6.18;;;2.83;;
66856;SDS011;53766;50.280;19.160;2023-03-23T14:36:28;5.85;;;2.90;;
66856;SDS011;53766;50.280;19.160;2023-03-23T14:39:00;6.35;;;3.17;;
66856;SDS011;53766;50.280;19.160;2023-03-23T14:41:31;3.75;;;2.78;;
66856;SDS011;53766;50.280;19.160;2023-03-23T14:44:00;4.80;;;2.97;;
66856;SDS011;53766;50.280;19.160;2023-03-23T14:46:28;4.97;;;3.03;;
66856;SDS011;53766;50.280;19.160;2023-03-23T14:48:59;9.35;;;3.83;;
66856;SDS011;53766;50.280;19.160;2023-03-23T14:51:27;8.40;;;4.03;;
66856;SDS011;53766;50.280;19.160;2023-03-23T14:53:53;6.15;;;3.60;;
66856;SDS011;53766;50.280;19.160;2023-03-23T14:56:21;6.45;;;3.50;;
66856;SDS011;53766;50.280;19.160;2023-03-23T14:58:51;7.80;;;3.42;;
66856;SDS011;53766;50.280;19.160;2023-03-23T15:01:26;7.38;;;3.22;;
66856;SDS011;53766;50.280;19.160;2023-03-23T15:06:33;6.65;;;3.53;;
66856;SDS011;53766;50.280;19.160;2023-03-23T15:09:03;6.97;;;3.60;;
66856;SDS011;53766;50.280;19.160;2023-03-23T15:11:36;9.38;;;3.85;;
66856;SDS011;53766;50.280;19.160;2023-03-23T15:14:16;5.25;;;3.38;;
66856;SDS011;53766;50.280;19.160;2023-03-23T15:16:47;6.18;;;3.70;;
66856;SDS011;53766;50.280;19.160;2023-03-23T15:19:25;6.78;;;3.28;;
66856;SDS011;53766;50.280;19.160;2023-03-23T15:22:14;6.95;;;3.63;;
66856;SDS011;53766;50.280;19.160;2023-03-23T15:24:47;9.52;;;3.90;;
66856;SDS011;53766;50.280;19.160;2023-03-23T15:27:28;7.07;;;3.47;;
66856;SDS011;53766;50.280;19.160;2023-03-23T15:29:58;6.32;;;3.58;;
66856;SDS011;53766;50.280;19.160;2023-03-23T15:32:38;9.20;;;4.00;;
66856;SDS011;53766;50.280;19.160;2023-03-23T15:35:23;8.00;;;3.78;;
66856;SDS011;53766;50.280;19.160;2023-03-23T15:37:52;4.90;;;3.30;;
66856;SDS011;53766;50.280;19.160;2023-03-23T15:40:25;6.75;;;3.42;;
66856;SDS011;53766;50.280;19.160;2023-03-23T15:43:14;7.22;;;3.75;;
66856;SDS011;53766;50.280;19.160;2023-03-23T15:46:02;9.05;;;3.67;;
66856;SDS011;53766;50.280;19.160;2023-03-23T15:48:30;5.80;;;3.65;;
66856;SDS011;53766;50.280;19.160;2023-03-23T15:50:58;7.32;;;3.60;;
66856;SDS011;53766;50.280;19.160;2023-03-23T15:53:27;7.28;;;4.25;;
66856;SDS011;53766;50.280;19.160;2023-03-23T15:56:04;10.55;;;4.40;;
66856;SDS011;53766;50.280;19.160;2023-03-23T15:58:32;13.43;;;4.75;;
66856;SDS011;53766;50.280;19.160;2023-03-23T16:01:03;9.38;;;4.10;;
66856;SDS011;53766;50.280;19.160;2023-03-23T16:03:44;8.18;;;4.28;;
66856;SDS011;53766;50.280;19.160;2023-03-23T16:06:15;8.73;;;3.90;;
66856;SDS011;53766;50.280;19.160;2023-03-23T16:08:52;6.65;;;3.50;;
66856;SDS011;53766;50.280;19.160;2023-03-23T16:11:23;8.23;;;3.75;;
66856;SDS011;53766;50.280;19.160;2023-03-23T16:13:52;8.18;;;3.67;;
66856;SDS011;53766;50.280;19.160;2023-03-23T16:16:22;8.57;;;3.53;;
66856;SDS011;53766;50.280;19.160;2023-03-23T16:18:53;7.68;;;3.63;;
66856;SDS011;53766;50.280;19.160;2023-03-23T16:21:22;8.68;;;3.67;;
66856;SDS011;53766;50.280;19.160;2023-03-23T16:23:50;9.65;;;3.90;;
66856;SDS011;53766;50.280;19.160;2023-03-23T16:26:18;9.02;;;3.65;;
66856;SDS011;53766;50.280;19.160;2023-03-23T16:28:45;8.20;;;3.58;;
66856;SDS011;53766;50.280;19.160;2023-03-23T16:31:13;6.20;;;3.38;;
66856;SDS011;53766;50.280;19.160;2023-03-23T16:33:41;11.05;;;3.70;;